sensor_id;sensor_type;location;lat;lon;timestamp;pressure;altitude;pressure_sealevel;temperature;humidity
55418;BME280;41287;47.554;7.844;2022-07-29T00:00:42;97790.63;;;23.95;52.35
55418;BME280;41287;47.554;7.844;2022-07-29T00:03:11;97788.66;;;23.95;52.36
55418;BME280;41287;47.554;7.844;2022-07-29T00:05:41;97787.13;;;23.94;52.74
55418;BME280;41287;47.554;7.844;2022-07-29T00:08:08;97785.16;;;23.95;52.99
55418;BME280;41287;47.554;7.844;2022-07-29T00:10:34;97785.16;;;23.95;52.98
55418;BME280;41287;47.554;7.844;2022-07-29T00:13:00;97782.44;;;23.95;53.19
55418;BME280;41287;47.554;7.844;2022-07-29T00:15:28;97790.63;;;23.95;53.57
55418;BME280;41287;47.554;7.844;2022-07-29T00:17:55;97784.38;;;23.94;53.42
55418;BME280;41287;47.554;7.844;2022-07-29T00:20:20;97780.44;;;23.95;53.38
55418;BME280;41287;47.554;7.844;2022-07-29T00:22:46;97783.19;;;23.95;53.70
55418;BME280;41287;47.554;7.844;2022-07-29T00:25:13;97787.91;;;23.95;54.14
55418;BME280;41287;47.554;7.844;2022-07-29T00:27:39;97789.84;;;23.94;53.87
55418;BME280;41287;47.554;7.844;2022-07-29T00:30:05;97793.75;;;23.93;54.18
55418;BME280;41287;47.554;7.844;2022-07-29T00:32:31;97791.78;;;23.94;54.24
55418;BME280;41287;47.554;7.844;2022-07-29T00:34:58;97788.63;;;23.92;54.82
55418;BME280;41287;47.554;7.844;2022-07-29T00:37:42;97773.00;;;23.92;54.75
55418;BME280;41287;47.554;7.844;2022-07-29T00:40:08;97782.38;;;23.91;54.96
55418;BME280;41287;47.554;7.844;2022-07-29T00:42:48;97782.75;;;23.90;54.99
55418;BME280;41287;47.554;7.844;2022-07-29T00:45:16;97781.16;;;23.89;55.04
55418;BME280;41287;47.554;7.844;2022-07-29T00:47:42;97782.75;;;23.90;55.18
55418;BME280;41287;47.554;7.844;2022-07-29T00:50:10;97776.88;;;23.88;55.56
55418;BME280;41287;47.554;7.844;2022-07-29T00:52:38;97772.97;;;23.89;55.24
55418;BME280;41287;47.554;7.844;2022-07-29T00:55:05;97771.00;;;23.89;55.46
55418;BME280;41287;47.554;7.844;2022-07-29T00:57:34;97768.69;;;23.88;55.56
55418;BME280;41287;47.554;7.844;2022-07-29T01:00:05;97771.78;;;23.86;55.50
55418;BME280;41287;47.554;7.844;2022-07-29T01:02:31;97781.56;;;23.87;55.64
55418;BME280;41287;47.554;7.844;2022-07-29T01:04:58;97786.63;;;23.85;55.56
55418;BME280;41287;47.554;7.844;2022-07-29T01:07:25;97778.41;;;23.85;55.62
55418;BME280;41287;47.554;7.844;2022-07-29T01:09:52;97782.31;;;23.84;55.96
55418;BME280;41287;47.554;7.844;2022-07-29T01:12:23;97770.94;;;23.82;55.88
55418;BME280;41287;47.554;7.844;2022-07-29T01:14:49;97778.00;;;23.83;56.48
55418;BME280;41287;47.554;7.844;2022-07-29T01:25:09;97773.28;;;23.80;56.66
55418;BME280;41287;47.554;7.844;2022-07-29T01:28:13;97776.38;;;23.79;56.58
55418;BME280;41287;47.554;7.844;2022-07-29T01:30:44;97787.34;;;23.79;56.09
55418;BME280;41287;47.554;7.844;2022-07-29T01:33:15;97788.50;;;23.78;56.25
55418;BME280;41287;47.554;7.844;2022-07-29T01:36:07;97788.91;;;23.80;56.11
55418;BME280;41287;47.554;7.844;2022-07-29T01:38:35;97795.19;;;23.80;56.04
55418;BME280;41287;47.554;7.844;2022-07-29T01:41:06;97795.19;;;23.80;56.10
55418;BME280;41287;47.554;7.844;2022-07-29T01:43:39;97789.69;;;23.80;56.07
55418;BME280;41287;47.554;7.844;2022-07-29T01:46:12;97802.97;;;23.82;56.15
55418;BME280;41287;47.554;7.844;2022-07-29T01:48:45;97797.50;;;23.82;56.20
55418;BME280;41287;47.554;7.844;2022-07-29T01:51:21;97803.41;;;23.84;56.26
55418;BME280;41287;47.554;7.844;2022-07-29T01:53:58;97801.47;;;23.84;56.28
55418;BME280;41287;47.554;7.844;2022-07-29T01:56:27;97798.72;;;23.84;56.43
55418;BME280;41287;47.554;7.844;2022-07-29T01:58:56;97783.47;;;23.83;56.39
55418;BME280;41287;47.554;7.844;2022-07-29T02:01:23;97784.25;;;23.84;56.38
55418;BME280;41287;47.554;7.844;2022-07-29T02:03:50;97787.00;;;23.84;56.68
55418;BME280;41287;47.554;7.844;2022-07-29T02:06:21;97793.59;;;23.79;57.14
55418;BME280;41287;47.554;7.844;2022-07-29T02:08:49;97786.53;;;23.78;57.52
55418;BME280;41287;47.554;7.844;2022-07-29T02:11:15;97780.66;;;23.76;57.93
55418;BME280;41287;47.554;7.844;2022-07-29T02:13:43;97774.38;;;23.72;58.43
55418;BME280;41287;47.554;7.844;2022-07-29T02:16:10;97768.09;;;23.72;58.10
55418;BME280;41287;47.554;7.844;2022-07-29T02:18:41;97773.16;;;23.70;58.52
55418;BME280;41287;47.554;7.844;2022-07-29T02:21:07;97789.94;;;23.68;58.20
55418;BME280;41287;47.554;7.844;2022-07-29T02:23:34;97787.59;;;23.67;58.01
55418;BME280;41287;47.554;7.844;2022-07-29T02:26:01;97779.38;;;23.67;58.32
55418;BME280;41287;47.554;7.844;2022-07-29T02:28:29;97779.75;;;23.65;58.38
55418;BME280;41287;47.554;7.844;2022-07-29T02:30:58;97775.44;;;23.64;58.05
55418;BME280;41287;47.554;7.844;2022-07-29T02:33:25;97776.59;;;23.63;58.13
55418;BME280;41287;47.554;7.844;2022-07-29T02:35:51;97778.19;;;23.64;58.35
55418;BME280;41287;47.554;7.844;2022-07-29T02:38:18;97785.59;;;23.63;58.03
55418;BME280;41287;47.554;7.844;2022-07-29T02:41:16;97781.66;;;23.61;58.51
55418;BME280;41287;47.554;7.844;2022-07-29T02:43:43;97781.28;;;23.62;58.47
55418;BME280;41287;47.554;7.844;2022-07-29T02:46:14;97780.88;;;23.60;58.51
55418;BME280;41287;47.554;7.844;2022-07-29T02:49:04;97770.69;;;23.57;58.67
55418;BME280;41287;47.554;7.844;2022-07-29T02:51:40;97772.63;;;23.57;58.46
55418;BME280;41287;47.554;7.844;2022-07-29T02:54:07;97778.88;;;23.57;58.22
55418;BME280;41287;47.554;7.844;2022-07-29T02:56:36;97772.22;;;23.55;58.34
55418;BME280;41287;47.554;7.844;2022-07-29T02:59:08;97772.22;;;23.55;58.55
55418;BME280;41287;47.554;7.844;2022-07-29T03:01:39;97785.50;;;23.53;58.78
55418;BME280;41287;47.554;7.844;2022-07-29T03:04:07;97772.97;;;23.52;58.33
55418;BME280;41287;47.554;7.844;2022-07-29T03:06:38;97771.41;;;23.51;58.46
55418;BME280;41287;47.554;7.844;2022-07-29T03:09:10;97767.06;;;23.50;58.44
55418;BME280;41287;47.554;7.844;2022-07-29T03:11:37;97776.06;;;23.50;58.58
55418;BME280;41287;47.554;7.844;2022-07-29T03:14:05;97778.38;;;23.48;58.62
55418;BME280;41287;47.554;7.844;2022-07-29T03:16:31;97770.97;;;23.49;58.44
55418;BME280;41287;47.554;7.844;2022-07-29T03:19:00;97774.06;;;23.47;58.60
55418;BME280;41287;47.554;7.844;2022-07-29T03:21:27;97778.75;;;23.47;58.61
55418;BME280;41287;47.554;7.844;2022-07-29T03:23:53;97779.91;;;23.46;58.35
55418;BME280;41287;47.554;7.844;2022-07-29T03:26:20;97775.22;;;23.46;58.39
55418;BME280;41287;47.554;7.844;2022-07-29T03:28:46;97768.19;;;23.45;58.48
55418;BME280;41287;47.554;7.844;2022-07-29T03:31:11;97772.84;;;23.45;58.51
55418;BME280;41287;47.554;7.844;2022-07-29T03:33:38;97769.34;;;23.44;58.52
55418;BME280;41287;47.554;7.844;2022-07-29T03:36:05;97774.00;;;23.44;58.46
55418;BME280;41287;47.554;7.844;2022-07-29T03:38:33;97770.84;;;23.42;58.38
55418;BME280;41287;47.554;7.844;2022-07-29T03:41:05;97775.53;;;23.41;58.34
55418;BME280;41287;47.554;7.844;2022-07-29T03:43:36;97778.66;;;23.40;58.72
55418;BME280;41287;47.554;7.844;2022-07-29T03:46:04;97779.47;;;23.40;58.75
55418;BME280;41287;47.554;7.844;2022-07-29T03:48:32;97784.94;;;23.40;58.82
55418;BME280;41287;47.554;7.844;2022-07-29T03:51:00;97788.81;;;23.39;58.75
55418;BME280;41287;47.554;7.844;2022-07-29T03:53:26;97788.81;;;23.39;58.81
55418;BME280;41287;47.554;7.844;2022-07-29T03:55:54;97794.28;;;23.39;58.51
55418;BME280;41287;47.554;7.844;2022-07-29T03:58:20;97793.50;;;23.39;58.53
55418;BME280;41287;47.554;7.844;2022-07-29T04:00:46;97787.22;;;23.38;58.59
55418;BME280;41287;47.554;7.844;2022-07-29T04:03:12;97796.59;;;23.37;58.29
55418;BME280;41287;47.554;7.844;2022-07-29T04:05:38;97788.38;;;23.37;58.67
55418;BME280;41287;47.554;7.844;2022-07-29T04:08:03;97787.59;;;23.37;58.55
55418;BME280;41287;47.554;7.844;2022-07-29T04:10:31;97789.53;;;23.36;58.35
55418;BME280;41287;47.554;7.844;2022-07-29T04:12:59;97799.31;;;23.37;58.71
55418;BME280;41287;47.554;7.844;2022-07-29T04:15:24;97789.53;;;23.36;58.57
55418;BME280;41287;47.554;7.844;2022-07-29T04:17:50;97790.69;;;23.35;58.64
55418;BME280;41287;47.554;7.844;2022-07-29T04:20:17;97796.16;;;23.35;58.69
55418;BME280;41287;47.554;7.844;2022-07-29T04:22:44;97798.50;;;23.33;58.42
55418;BME280;41287;47.554;7.844;2022-07-29T04:25:10;97793.03;;;23.33;58.60
55418;BME280;41287;47.554;7.844;2022-07-29T04:27:35;97791.47;;;23.32;58.82
55418;BME280;41287;47.554;7.844;2022-07-29T04:30:21;97793.81;;;23.34;58.83
55418;BME280;41287;47.554;7.844;2022-07-29T04:32:46;97793.03;;;23.33;58.65
55418;BME280;41287;47.554;7.844;2022-07-29T04:35:12;97796.56;;;23.34;58.32
55418;BME280;41287;47.554;7.844;2022-07-29T04:37:37;97794.28;;;23.39;58.97
55418;BME280;41287;47.554;7.844;2022-07-29T04:40:03;97787.38;;;23.49;58.62
55418;BME280;41287;47.554;7.844;2022-07-29T04:42:28;97787.09;;;23.57;58.51
55418;BME280;41287;47.554;7.844;2022-07-29T04:44:55;97794.59;;;23.64;58.55
55418;BME280;41287;47.554;7.844;2022-07-29T04:47:21;97775.91;;;23.70;59.07
55418;BME280;41287;47.554;7.844;2022-07-29T04:49:46;97788.06;;;23.76;59.39
55418;BME280;41287;47.554;7.844;2022-07-29T04:52:12;97789.69;;;23.80;59.76
55418;BME280;41287;47.554;7.844;2022-07-29T04:54:37;97792.47;;;23.84;60.85
55418;BME280;41287;47.554;7.844;2022-07-29T04:57:02;97791.31;;;23.88;61.55
55418;BME280;41287;47.554;7.844;2022-07-29T04:59:30;97801.97;;;23.93;62.68
55418;BME280;41287;47.554;7.844;2022-07-29T05:01:55;97805.50;;;23.97;62.72
55418;BME280;41287;47.554;7.844;2022-07-29T05:04:21;97808.28;;;24.01;62.92
55418;BME280;41287;47.554;7.844;2022-07-29T05:06:47;97814.56;;;24.05;63.22
55418;BME280;41287;47.554;7.844;2022-07-29T05:09:12;97815.38;;;24.09;63.47
55418;BME280;41287;47.554;7.844;2022-07-29T05:11:38;97813.84;;;24.12;63.59
55418;BME280;41287;47.554;7.844;2022-07-29T05:14:03;97813.50;;;24.13;63.63
55418;BME280;41287;47.554;7.844;2022-07-29T05:16:29;97809.97;;;24.16;63.81
55418;BME280;41287;47.554;7.844;2022-07-29T05:18:56;97812.78;;;24.20;63.97
55418;BME280;41287;47.554;7.844;2022-07-29T05:21:22;97820.66;;;24.21;64.11
55418;BME280;41287;47.554;7.844;2022-07-29T05:23:47;97826.50;;;24.23;64.25
55418;BME280;41287;47.554;7.844;2022-07-29T05:26:13;97833.97;;;24.26;64.66
55418;BME280;41287;47.554;7.844;2022-07-29T05:28:38;97825.41;;;24.28;64.85
55418;BME280;41287;47.554;7.844;2022-07-29T05:31:03;97832.06;;;24.30;64.74
55418;BME280;41287;47.554;7.844;2022-07-29T05:33:29;97822.31;;;24.33;64.95
55418;BME280;41287;47.554;7.844;2022-07-29T05:35:54;97820.00;;;24.35;64.89
55418;BME280;41287;47.554;7.844;2022-07-29T05:38:20;97829.78;;;24.36;64.96
55418;BME280;41287;47.554;7.844;2022-07-29T05:40:47;97832.53;;;24.39;65.17
55418;BME280;41287;47.554;7.844;2022-07-29T05:43:13;97832.94;;;24.42;64.95
55418;BME280;41287;47.554;7.844;2022-07-29T05:45:38;97832.19;;;24.45;65.09
55418;BME280;41287;47.554;7.844;2022-07-29T05:48:05;97837.28;;;24.46;65.37
55418;BME280;41287;47.554;7.844;2022-07-29T05:50:32;97832.22;;;24.48;64.96
55418;BME280;41287;47.554;7.844;2022-07-29T05:52:58;97843.19;;;24.48;63.62
55418;BME280;41287;47.554;7.844;2022-07-29T05:55:25;97842.75;;;24.43;62.03
55418;BME280;41287;47.554;7.844;2022-07-29T05:57:52;97841.91;;;24.35;61.34
55418;BME280;41287;47.554;7.844;2022-07-29T06:00:17;97834.41;;;24.32;60.53
55418;BME280;41287;47.554;7.844;2022-07-29T06:02:43;97835.56;;;24.27;60.07
55418;BME280;41287;47.554;7.844;2022-07-29T06:05:08;97841.00;;;24.24;59.84
55418;BME280;41287;47.554;7.844;2022-07-29T06:07:34;97838.66;;;24.22;59.96
55418;BME280;41287;47.554;7.844;2022-07-29T06:09:59;97836.28;;;24.21;59.93
55418;BME280;41287;47.554;7.844;2022-07-29T06:12:25;97837.06;;;24.21;60.04
55418;BME280;41287;47.554;7.844;2022-07-29T06:14:50;97841.31;;;24.19;59.95
55418;BME280;41287;47.554;7.844;2022-07-29T06:17:16;97839.31;;;24.16;59.89
55418;BME280;41287;47.554;7.844;2022-07-29T06:19:44;97841.22;;;24.12;59.82
55418;BME280;41287;47.554;7.844;2022-07-29T06:22:11;97848.25;;;24.09;59.59
55418;BME280;41287;47.554;7.844;2022-07-29T06:24:36;97856.06;;;24.07;59.54
55418;BME280;41287;47.554;7.844;2022-07-29T06:27:06;97857.22;;;24.06;59.38
55418;BME280;41287;47.554;7.844;2022-07-29T06:29:34;97858.75;;;24.03;59.82
55418;BME280;41287;47.554;7.844;2022-07-29T06:32:00;97866.94;;;24.03;59.79
55418;BME280;41287;47.554;7.844;2022-07-29T06:34:27;97866.94;;;24.03;59.86
55418;BME280;41287;47.554;7.844;2022-07-29T06:36:53;97863.81;;;24.01;59.86
55418;BME280;41287;47.554;7.844;2022-07-29T06:39:18;97869.28;;;24.01;60.17
55418;BME280;41287;47.554;7.844;2022-07-29T06:41:49;97882.19;;;24.01;59.99
55418;BME280;41287;47.554;7.844;2022-07-29T06:44:16;97886.09;;;24.00;60.19
55418;BME280;41287;47.554;7.844;2022-07-29T06:46:41;97883.75;;;24.02;59.77
55418;BME280;41287;47.554;7.844;2022-07-29T06:49:07;97882.19;;;24.01;59.71
55418;BME280;41287;47.554;7.844;2022-07-29T06:51:34;97888.03;;;23.99;59.48
55418;BME280;41287;47.554;7.844;2022-07-29T06:54:02;97892.28;;;23.97;59.64
55418;BME280;41287;47.554;7.844;2022-07-29T06:56:31;97896.97;;;23.96;59.40
55418;BME280;41287;47.554;7.844;2022-07-29T06:58:58;97887.59;;;23.94;59.49
55418;BME280;41287;47.554;7.844;2022-07-29T07:01:25;97894.22;;;23.93;59.24
55418;BME280;41287;47.554;7.844;2022-07-29T07:03:51;97895.75;;;23.90;59.39
55418;BME280;41287;47.554;7.844;2022-07-29T07:06:18;97905.91;;;23.90;59.19
55418;BME280;41287;47.554;7.844;2022-07-29T07:08:44;97908.22;;;23.88;59.18
55418;BME280;41287;47.554;7.844;2022-07-29T07:11:09;97913.72;;;23.88;59.27
55418;BME280;41287;47.554;7.844;2022-07-29T07:13:35;97925.81;;;23.87;59.35
55418;BME280;41287;47.554;7.844;2022-07-29T07:16:01;97929.69;;;23.86;59.07
55418;BME280;41287;47.554;7.844;2022-07-29T07:18:27;97940.66;;;23.86;59.42
55418;BME280;41287;47.554;7.844;2022-07-29T07:20:53;97938.28;;;23.84;59.45
55418;BME280;41287;47.554;7.844;2022-07-29T07:23:20;97941.81;;;23.85;59.30
55418;BME280;41287;47.554;7.844;2022-07-29T07:25:45;97942.97;;;23.84;59.38
55418;BME280;41287;47.554;7.844;2022-07-29T07:28:11;97944.91;;;23.83;59.63
55418;BME280;41287;47.554;7.844;2022-07-29T07:30:38;97946.50;;;23.84;59.49
55418;BME280;41287;47.554;7.844;2022-07-29T07:33:04;97942.97;;;23.84;59.55
55418;BME280;41287;47.554;7.844;2022-07-29T07:35:29;97945.69;;;23.84;59.07
55418;BME280;41287;47.554;7.844;2022-07-29T07:37:55;97942.97;;;23.84;59.23
55418;BME280;41287;47.554;7.844;2022-07-29T07:40:21;97948.06;;;23.85;59.07
55418;BME280;41287;47.554;7.844;2022-07-29T07:42:46;97939.50;;;23.87;58.99
55418;BME280;41287;47.554;7.844;2022-07-29T07:45:13;97935.22;;;23.89;58.83
55418;BME280;41287;47.554;7.844;2022-07-29T07:47:41;97944.63;;;23.92;58.73
55418;BME280;41287;47.554;7.844;2022-07-29T07:50:09;97943.09;;;23.94;58.69
55418;BME280;41287;47.554;7.844;2022-07-29T07:52:46;97947.41;;;23.95;58.75
55418;BME280;41287;47.554;7.844;2022-07-29T07:55:11;97956.03;;;23.97;58.48
55418;BME280;41287;47.554;7.844;2022-07-29T07:57:37;97946.31;;;24.00;58.41
55418;BME280;41287;47.554;7.844;2022-07-29T08:00:03;97949.81;;;24.00;58.44
55418;BME280;41287;47.554;7.844;2022-07-29T08:02:31;97946.69;;;24.02;58.62
55418;BME280;41287;47.554;7.844;2022-07-29T08:05:00;97940.84;;;24.03;58.43
55418;BME280;41287;47.554;7.844;2022-07-29T08:07:25;97940.84;;;24.03;58.34
55418;BME280;41287;47.554;7.844;2022-07-29T08:09:53;97944.81;;;24.06;58.42
55418;BME280;41287;47.554;7.844;2022-07-29T08:12:18;97936.97;;;24.05;58.23
55418;BME280;41287;47.554;7.844;2022-07-29T08:14:44;97942.06;;;24.06;58.45
55418;BME280;41287;47.554;7.844;2022-07-29T08:17:09;97938.97;;;24.08;58.49
55418;BME280;41287;47.554;7.844;2022-07-29T08:19:35;97945.22;;;24.08;58.38
55418;BME280;41287;47.554;7.844;2022-07-29T08:22:01;97946.78;;;24.09;58.41
55418;BME280;41287;47.554;7.844;2022-07-29T08:24:28;97946.78;;;24.09;58.37
55418;BME280;41287;47.554;7.844;2022-07-29T08:27:14;97945.63;;;24.10;58.13
55418;BME280;41287;47.554;7.844;2022-07-29T08:29:39;97936.63;;;24.10;58.46
55418;BME280;41287;47.554;7.844;2022-07-29T08:32:06;97941.72;;;24.11;58.46
55418;BME280;41287;47.554;7.844;2022-07-29T08:34:33;97945.63;;;24.10;58.30
55418;BME280;41287;47.554;7.844;2022-07-29T08:37:00;97942.88;;;24.10;58.43
55418;BME280;41287;47.554;7.844;2022-07-29T08:39:26;97948.00;;;24.12;58.28
55418;BME280;41287;47.554;7.844;2022-07-29T08:41:53;97948.00;;;24.12;58.17
55418;BME280;41287;47.554;7.844;2022-07-29T08:44:21;97937.84;;;24.12;58.19
55418;BME280;41287;47.554;7.844;2022-07-29T08:46:47;97945.69;;;24.14;58.23
55418;BME280;41287;47.554;7.844;2022-07-29T08:49:14;97946.47;;;24.14;58.15
55418;BME280;41287;47.554;7.844;2022-07-29T08:51:40;97941.78;;;24.15;58.03
55418;BME280;41287;47.554;7.844;2022-07-29T08:54:08;97949.59;;;24.16;57.62
55418;BME280;41287;47.554;7.844;2022-07-29T08:56:34;97946.06;;;24.16;57.02
55418;BME280;41287;47.554;7.844;2022-07-29T08:59:02;97947.66;;;24.17;56.60
55418;BME280;41287;47.554;7.844;2022-07-29T09:01:29;97950.03;;;24.18;56.62
55418;BME280;41287;47.554;7.844;2022-07-29T09:03:57;97941.81;;;24.18;56.36
55418;BME280;41287;47.554;7.844;2022-07-29T09:06:29;97947.28;;;24.18;56.16
55418;BME280;41287;47.554;7.844;2022-07-29T09:08:58;97952.44;;;24.20;55.86
55418;BME280;41287;47.554;7.844;2022-07-29T09:11:24;97946.94;;;24.20;55.96
55418;BME280;41287;47.554;7.844;2022-07-29T09:13:50;97943.44;;;24.19;56.07
55418;BME280;41287;47.554;7.844;2022-07-29T09:16:15;97943.06;;;24.21;56.12
55418;BME280;41287;47.554;7.844;2022-07-29T09:18:44;97944.63;;;24.22;55.87
55418;BME280;41287;47.554;7.844;2022-07-29T09:21:15;97939.16;;;24.22;55.98
55418;BME280;41287;47.554;7.844;2022-07-29T09:24:10;97930.94;;;24.22;55.76
55418;BME280;41287;47.554;7.844;2022-07-29T09:26:44;97931.75;;;24.22;56.08
55418;BME280;41287;47.554;7.844;2022-07-29T09:31:40;97929.75;;;24.23;56.13
55418;BME280;41287;47.554;7.844;2022-07-29T09:34:06;97923.91;;;24.24;55.85
55418;BME280;41287;47.554;7.844;2022-07-29T09:36:47;97925.06;;;24.23;55.83
55418;BME280;41287;47.554;7.844;2022-07-29T09:39:14;97930.97;;;24.25;55.87
55418;BME280;41287;47.554;7.844;2022-07-29T09:41:51;97934.88;;;24.24;56.22
55418;BME280;41287;47.554;7.844;2022-07-29T09:44:25;97932.94;;;24.25;56.83
55418;BME280;41287;47.554;7.844;2022-07-29T09:46:58;97935.66;;;24.25;57.08
55418;BME280;41287;47.554;7.844;2022-07-29T09:49:24;97927.44;;;24.25;56.91
55418;BME280;41287;47.554;7.844;2022-07-29T09:52:11;97924.75;;;24.28;56.91
55418;BME280;41287;47.554;7.844;2022-07-29T09:54:37;97927.50;;;24.28;56.83
55418;BME280;41287;47.554;7.844;2022-07-29T09:57:05;97915.75;;;24.28;56.99
55418;BME280;41287;47.554;7.844;2022-07-29T09:59:33;97921.22;;;24.28;56.95
55418;BME280;41287;47.554;7.844;2022-07-29T10:01:59;97923.19;;;24.27;56.86
55418;BME280;41287;47.554;7.844;2022-07-29T10:04:39;97922.03;;;24.28;56.69
55418;BME280;41287;47.554;7.844;2022-07-29T10:07:05;97922.03;;;24.28;56.85
55418;BME280;41287;47.554;7.844;2022-07-29T10:09:32;97920.06;;;24.29;56.74
55418;BME280;41287;47.554;7.844;2022-07-29T10:12:07;97916.53;;;24.28;56.63
55418;BME280;41287;47.554;7.844;2022-07-29T10:14:34;97917.34;;;24.29;56.75
55418;BME280;41287;47.554;7.844;2022-07-29T10:17:00;97921.63;;;24.30;56.67
55418;BME280;41287;47.554;7.844;2022-07-29T10:19:30;97868.81;;;24.29;57.04
55418;BME280;41287;47.554;7.844;2022-07-29T10:21:57;97864.13;;;24.30;56.90
55418;BME280;41287;47.554;7.844;2022-07-29T10:24:25;97893.44;;;24.29;56.87
55418;BME280;41287;47.554;7.844;2022-07-29T10:26:54;97897.78;;;24.30;56.79
55418;BME280;41287;47.554;7.844;2022-07-29T10:29:21;97897.78;;;24.30;56.94
55418;BME280;41287;47.554;7.844;2022-07-29T10:35:29;97926.31;;;24.29;56.79
55418;BME280;41287;47.554;7.844;2022-07-29T10:38:27;97934.94;;;24.31;56.87
55418;BME280;41287;47.554;7.844;2022-07-29T10:41:12;97937.69;;;24.31;56.79
55418;BME280;41287;47.554;7.844;2022-07-29T10:44:00;97936.09;;;24.30;56.72
55418;BME280;41287;47.554;7.844;2022-07-29T10:46:28;97938.47;;;24.32;56.76
55418;BME280;41287;47.554;7.844;2022-07-29T10:49:07;97929.47;;;24.31;56.62
55418;BME280;41287;47.554;7.844;2022-07-29T10:51:53;97923.22;;;24.31;56.72
55418;BME280;41287;47.554;7.844;2022-07-29T10:57:13;97926.72;;;24.31;56.68
55418;BME280;41287;47.554;7.844;2022-07-29T10:59:40;97924.00;;;24.31;56.83
55418;BME280;41287;47.554;7.844;2022-07-29T11:05:07;97924.00;;;24.31;56.78
55418;BME280;41287;47.554;7.844;2022-07-29T11:07:34;97916.19;;;24.33;56.88
55418;BME280;41287;47.554;7.844;2022-07-29T11:15:10;97922.47;;;24.34;56.54
55418;BME280;41287;47.554;7.844;2022-07-29T11:20:48;97920.09;;;24.32;56.62
55418;BME280;41287;47.554;7.844;2022-07-29T11:23:28;97921.69;;;24.33;56.66
55418;BME280;41287;47.554;7.844;2022-07-29T11:26:17;97930.69;;;24.34;56.65
55418;BME280;41287;47.554;7.844;2022-07-29T11:34:27;97940.06;;;24.33;56.95
55418;BME280;41287;47.554;7.844;2022-07-29T11:39:42;97935.78;;;24.35;56.62
55418;BME280;41287;47.554;7.844;2022-07-29T11:44:59;97937.75;;;24.35;56.58
55418;BME280;41287;47.554;7.844;2022-07-29T11:47:31;97939.31;;;24.36;56.71
55418;BME280;41287;47.554;7.844;2022-07-29T11:49:59;97935.00;;;24.35;56.62
55418;BME280;41287;47.554;7.844;2022-07-29T11:52:36;97940.47;;;24.35;56.51
55418;BME280;41287;47.554;7.844;2022-07-29T11:55:04;97941.28;;;24.35;56.80
55418;BME280;41287;47.554;7.844;2022-07-29T11:57:30;97946.75;;;24.35;56.91
55418;BME280;41287;47.554;7.844;2022-07-29T12:00:00;97956.50;;;24.36;56.74
55418;BME280;41287;47.554;7.844;2022-07-29T12:02:41;97954.97;;;24.35;56.92
55418;BME280;41287;47.554;7.844;2022-07-29T12:05:09;97962.78;;;24.37;57.06
55418;BME280;41287;47.554;7.844;2022-07-29T12:07:36;97956.16;;;24.38;56.99
55418;BME280;41287;47.554;7.844;2022-07-29T12:10:04;97957.72;;;24.39;56.72
55418;BME280;41287;47.554;7.844;2022-07-29T12:12:29;97960.09;;;24.40;56.76
55418;BME280;41287;47.554;7.844;2022-07-29T12:14:55;97961.69;;;24.42;57.05
55418;BME280;41287;47.554;7.844;2022-07-29T12:17:33;97963.63;;;24.41;56.62
55418;BME280;41287;47.554;7.844;2022-07-29T12:20:00;97961.69;;;24.42;56.95
55418;BME280;41287;47.554;7.844;2022-07-29T12:22:39;97964.03;;;24.43;56.84
55418;BME280;41287;47.554;7.844;2022-07-29T12:25:10;97975.75;;;24.44;57.01
55418;BME280;41287;47.554;7.844;2022-07-29T12:27:37;97967.19;;;24.45;56.82
55418;BME280;41287;47.554;7.844;2022-07-29T12:30:05;97982.03;;;24.44;56.93
55418;BME280;41287;47.554;7.844;2022-07-29T12:32:35;97976.56;;;24.44;57.06
55418;BME280;41287;47.554;7.844;2022-07-29T12:35:08;97978.13;;;24.45;56.98
55418;BME280;41287;47.554;7.844;2022-07-29T12:37:34;97976.97;;;24.46;57.36
55418;BME280;41287;47.554;7.844;2022-07-29T12:40:01;97980.94;;;24.49;57.00
55418;BME280;41287;47.554;7.844;2022-07-29T12:42:27;97979.34;;;24.48;57.03
55418;BME280;41287;47.554;7.844;2022-07-29T12:44:53;97982.88;;;24.48;57.32
55418;BME280;41287;47.554;7.844;2022-07-29T12:47:19;97982.09;;;24.48;57.21
55418;BME280;41287;47.554;7.844;2022-07-29T12:49:47;97980.13;;;24.48;57.21
55418;BME280;41287;47.554;7.844;2022-07-29T12:52:32;97975.44;;;24.49;57.42
55418;BME280;41287;47.554;7.844;2022-07-29T12:54:58;97970.75;;;24.49;57.30
55418;BME280;41287;47.554;7.844;2022-07-29T12:57:23;97968.81;;;24.50;57.27
55418;BME280;41287;47.554;7.844;2022-07-29T13:00:22;97972.31;;;24.50;57.48
55418;BME280;41287;47.554;7.844;2022-07-29T13:02:55;97965.69;;;24.51;57.39
55418;BME280;41287;47.554;7.844;2022-07-29T13:05:21;97972.38;;;24.54;57.31
55418;BME280;41287;47.554;7.844;2022-07-29T13:07:47;97977.84;;;24.54;57.42
55418;BME280;41287;47.554;7.844;2022-07-29T13:10:20;97978.63;;;24.54;57.36
55418;BME280;41287;47.554;7.844;2022-07-29T13:13:09;97975.09;;;24.54;57.46
55418;BME280;41287;47.554;7.844;2022-07-29T13:15:43;97983.75;;;24.56;57.44
55418;BME280;41287;47.554;7.844;2022-07-29T13:18:32;97990.00;;;24.56;57.52
55418;BME280;41287;47.554;7.844;2022-07-29T13:21:11;98001.72;;;24.57;57.72
55418;BME280;41287;47.554;7.844;2022-07-29T13:23:37;97997.03;;;24.57;57.28
55418;BME280;41287;47.554;7.844;2022-07-29T13:26:10;97999.41;;;24.59;57.28
55418;BME280;41287;47.554;7.844;2022-07-29T13:28:36;98002.16;;;24.59;57.34
55418;BME280;41287;47.554;7.844;2022-07-29T13:31:02;98004.91;;;24.59;57.23
55418;BME280;41287;47.554;7.844;2022-07-29T13:33:27;97994.72;;;24.59;57.35
55418;BME280;41287;47.554;7.844;2022-07-29T13:35:53;98007.28;;;24.60;57.21
55418;BME280;41287;47.554;7.844;2022-07-29T13:38:20;98003.38;;;24.61;57.19
55418;BME280;41287;47.554;7.844;2022-07-29T13:40:46;98007.28;;;24.60;57.07
55418;BME280;41287;47.554;7.844;2022-07-29T13:43:15;98001.41;;;24.62;57.02
55418;BME280;41287;47.554;7.844;2022-07-29T13:45:41;98002.22;;;24.62;56.71
55418;BME280;41287;47.554;7.844;2022-07-29T13:48:06;98003.78;;;24.63;56.77